createdAt,value
2018-10-06T00:02:13.025Z,99731.62
2018-10-06T00:05:17.707Z,99730.76
2018-10-06T00:08:22.665Z,99728.14
2018-10-06T00:11:27.539Z,99736.32
2018-10-06T00:14:32.380Z,99734.11
2018-10-06T00:17:37.253Z,99729.06
2018-10-06T00:20:42.177Z,99725.25
2018-10-06T00:23:46.890Z,99725.84
2018-10-06T00:26:51.935Z,99726.36
2018-10-06T00:29:57.129Z,99720.11
2018-10-06T00:33:01.893Z,99717.30
2018-10-06T00:36:06.851Z,99706.36
2018-10-06T00:39:11.511Z,99711.86
2018-10-06T00:42:16.184Z,99710.32
2018-10-06T00:45:20.881Z,99707.34
2018-10-06T00:48:25.669Z,99701.28
2018-10-06T00:51:30.557Z,99705.52
2018-10-06T00:54:35.226Z,99699.72
2018-10-06T00:57:39.923Z,99698.21
2018-10-06T01:00:44.667Z,99695.33
2018-10-06T01:03:49.418Z,99696.75
2018-10-06T01:06:54.340Z,99692.04
2018-10-06T01:09:59.069Z,99694.08
2018-10-06T01:13:03.915Z,99696.41
2018-10-06T01:16:08.970Z,99690.23
2018-10-06T01:19:13.733Z,99681.08
2018-10-06T01:22:18.617Z,99682.08
2018-10-06T01:25:23.371Z,99672.01
2018-10-06T01:28:28.220Z,99668.38
2018-10-06T01:31:33.125Z,99664.44
2018-10-06T01:34:37.852Z,99669.33
2018-10-06T01:37:42.604Z,99668.89
2018-10-06T01:40:47.433Z,99672.09
2018-10-06T01:43:52.637Z,99678.39
2018-10-06T01:46:57.491Z,99674.51
2018-10-06T01:50:02.654Z,99669.28
2018-10-06T01:53:07.352Z,99676.48
2018-10-06T01:56:12.193Z,99664.11
2018-10-06T01:59:16.909Z,99664.57
2018-10-06T02:02:21.627Z,99666.03
2018-10-06T02:05:26.360Z,99651.41
2018-10-06T02:08:31.116Z,99647.78
2018-10-06T02:11:35.977Z,99648.98
2018-10-06T02:14:40.771Z,99648.69
2018-10-06T02:17:45.672Z,99638.16
2018-10-06T02:20:50.421Z,99635.25
2018-10-06T02:23:55.242Z,99638.75
2018-10-06T02:26:59.873Z,99635.69
2018-10-06T02:30:05.100Z,99626.13
2018-10-06T02:33:09.880Z,99632.41
2018-10-06T02:36:14.798Z,99630.42
2018-10-06T02:39:19.534Z,99618.94
2018-10-06T02:42:24.397Z,99615.99
2018-10-06T02:45:29.097Z,99611.28
2018-10-06T02:48:33.726Z,99610.61
2018-10-06T02:51:38.458Z,99613.66
2018-10-06T02:54:43.228Z,99599.20
2018-10-06T02:57:47.904Z,99601.74
2018-10-06T03:00:52.826Z,99601.75
2018-10-06T03:03:57.943Z,99598.86
2018-10-06T03:07:02.669Z,99599.89
2018-10-06T03:10:07.532Z,99602.13
2018-10-06T03:13:12.471Z,99598.13
2018-10-06T03:16:17.657Z,99587.77
2018-10-06T03:19:22.442Z,99591.44
2018-10-06T03:22:27.285Z,99587.52
2018-10-06T03:25:32.169Z,99596.56
2018-10-06T03:28:37.087Z,99592.91
2018-10-06T03:31:41.954Z,99594.89
2018-10-06T03:34:46.842Z,99607.02
2018-10-06T03:37:51.616Z,99606.23
2018-10-06T03:40:56.418Z,99604.25
2018-10-06T03:44:01.137Z,99602.40
2018-10-06T03:47:07.080Z,99598.12
2018-10-06T03:50:11.687Z,99587.00
2018-10-06T03:53:35.231Z,99598.19
2018-10-06T03:56:40.949Z,99596.52
2018-10-06T03:59:45.532Z,99596.33
2018-10-06T04:02:50.340Z,99590.89
2018-10-06T04:05:55.024Z,99588.46
2018-10-06T04:09:00.219Z,99580.55
2018-10-06T04:12:04.780Z,99585.09
2018-10-06T04:15:09.544Z,99585.58
2018-10-06T04:18:14.524Z,99596.54
2018-10-06T04:21:19.186Z,99601.31
2018-10-06T04:24:23.977Z,99603.69
2018-10-06T04:27:28.804Z,99599.37
2018-10-06T04:30:33.514Z,99605.16
2018-10-06T04:33:38.226Z,99596.15
2018-10-06T04:36:42.878Z,99591.03
2018-10-06T04:39:47.491Z,99595.75
2018-10-06T04:42:52.200Z,99594.87
2018-10-06T04:45:56.713Z,99587.77
2018-10-06T04:49:01.343Z,99585.43
2018-10-06T04:52:06.168Z,99577.79
2018-10-06T04:55:10.916Z,99576.11
2018-10-06T04:58:15.715Z,99580.13
2018-10-06T05:01:20.468Z,99578.19
2018-10-06T05:04:25.188Z,99576.91
2018-10-06T05:07:30.008Z,99578.80
2018-10-06T05:10:34.573Z,99581.29
2018-10-06T05:13:39.344Z,99579.86
2018-10-06T05:16:43.936Z,99576.91
2018-10-06T05:19:48.521Z,99577.97
2018-10-06T05:22:53.177Z,99586.13
2018-10-06T05:25:57.804Z,99589.27
2018-10-06T05:29:02.364Z,99580.92
2018-10-06T05:32:07.291Z,99586.42
2018-10-06T05:35:11.955Z,99578.64
2018-10-06T05:38:16.659Z,99573.95
2018-10-06T05:41:21.186Z,99576.58
2018-10-06T05:44:25.825Z,99580.38
2018-10-06T05:47:30.925Z,99579.67
2018-10-06T05:50:35.478Z,99575.96
2018-10-06T05:53:40.102Z,99574.89
2018-10-06T05:56:44.673Z,99586.38
2018-10-06T05:59:49.357Z,99589.55
2018-10-06T06:02:54.046Z,99586.78
2018-10-06T06:05:58.570Z,99587.48
2018-10-06T06:09:03.752Z,99584.77
2018-10-06T06:12:08.443Z,99584.24
2018-10-06T06:15:13.070Z,99586.73
2018-10-06T06:18:17.677Z,99595.93
2018-10-06T06:21:22.417Z,99594.09
2018-10-06T06:24:27.217Z,99592.19
2018-10-06T06:27:31.894Z,99592.94
2018-10-06T06:30:36.623Z,99594.62
2018-10-06T06:33:41.323Z,99591.48
2018-10-06T06:36:45.996Z,99589.09
2018-10-06T06:39:50.879Z,99591.25
2018-10-06T06:42:55.508Z,99593.94
2018-10-06T06:46:00.234Z,99590.21
2018-10-06T06:49:05.127Z,99586.81
2018-10-06T06:52:09.738Z,99588.52
2018-10-06T06:55:14.607Z,99590.03
2018-10-06T06:58:19.519Z,99584.88
2018-10-06T07:01:24.325Z,99589.23
2018-10-06T07:04:28.963Z,99580.78
2018-10-06T07:07:33.752Z,99581.74
2018-10-06T07:10:38.423Z,99581.00
2018-10-06T07:13:44.336Z,99572.88
2018-10-06T07:16:49.010Z,99569.90
2018-10-06T07:19:53.975Z,99581.05
2018-10-06T07:22:58.818Z,99588.70
2018-10-06T07:26:03.879Z,99584.92
2018-10-06T07:29:08.572Z,99585.00
2018-10-06T07:32:13.130Z,99572.81
2018-10-06T07:35:17.976Z,99568.52
2018-10-06T07:38:22.736Z,99573.38
2018-10-06T07:41:27.409Z,99585.27
2018-10-06T07:44:32.184Z,99582.84
2018-10-06T07:47:36.855Z,99580.44
2018-10-06T07:50:41.546Z,99578.85
2018-10-06T07:53:46.259Z,99579.47
2018-10-06T07:56:50.950Z,99585.43
2018-10-06T07:59:55.714Z,99580.91
2018-10-06T08:03:00.793Z,99575.38
2018-10-06T08:06:05.552Z,99573.52
2018-10-06T08:09:11.004Z,99569.00
2018-10-06T08:12:15.734Z,99562.98
2018-10-06T08:15:20.387Z,99557.79
2018-10-06T08:18:25.280Z,99559.55
2018-10-06T08:21:31.246Z,99561.38
2018-10-06T08:24:35.943Z,99564.70
2018-10-06T08:27:40.641Z,99556.48
2018-10-06T08:30:45.249Z,99549.88
2018-10-06T08:33:50.857Z,99549.60
2018-10-06T08:36:55.496Z,99544.39
2018-10-06T08:40:00.053Z,99547.22
2018-10-06T08:43:04.837Z,99545.91
2018-10-06T08:46:09.549Z,99530.25
2018-10-06T08:49:14.198Z,99533.33
2018-10-06T08:52:18.988Z,99522.85
2018-10-06T08:55:23.825Z,99524.02
2018-10-06T08:58:28.726Z,99522.06
2018-10-06T09:01:33.418Z,99515.08
2018-10-06T09:04:38.133Z,99512.40
2018-10-06T09:07:42.753Z,99496.36
2018-10-06T09:10:47.531Z,99491.29
2018-10-06T09:13:52.282Z,99484.83
2018-10-06T09:16:57.135Z,99484.73
2018-10-06T09:20:01.911Z,99476.73
2018-10-06T09:23:06.729Z,99481.38
2018-10-06T09:26:11.462Z,99468.23
2018-10-06T09:29:16.289Z,99470.20
2018-10-06T09:32:21.018Z,99467.03
2018-10-06T09:35:25.721Z,99462.17
2018-10-06T09:38:30.517Z,99458.73
2018-10-06T09:41:35.428Z,99451.90
2018-10-06T09:44:40.088Z,99456.95
2018-10-06T09:47:44.750Z,99448.75
2018-10-06T09:50:49.488Z,99443.15
2018-10-06T09:53:54.272Z,99440.41
2018-10-06T09:56:59.130Z,99434.17
2018-10-06T10:00:03.882Z,99430.55
2018-10-06T10:03:13.590Z,99426.30
2018-10-06T10:06:18.233Z,99427.12
2018-10-06T10:09:22.934Z,99415.73
2018-10-06T10:12:27.657Z,99414.63
2018-10-06T10:15:32.304Z,99416.53
2018-10-06T10:18:37.133Z,99415.73
2018-10-06T10:21:41.951Z,99412.20
2018-10-06T10:24:46.671Z,99407.84
2018-10-06T10:27:51.485Z,99402.75
2018-10-06T10:30:56.263Z,99396.08
2018-10-06T10:34:00.870Z,99392.77
2018-10-06T10:37:05.741Z,99382.58
2018-10-06T10:40:10.479Z,99380.51
2018-10-06T10:43:15.189Z,99380.55
2018-10-06T10:46:19.765Z,99383.84
2018-10-06T10:49:24.575Z,99383.31
2018-10-06T10:52:29.317Z,99373.56
2018-10-06T10:55:34.044Z,99369.86
2018-10-06T10:58:38.585Z,99356.66
2018-10-06T11:01:43.294Z,99353.41
2018-10-06T11:04:48.057Z,99348.52
2018-10-06T11:07:52.657Z,99338.08
2018-10-06T11:10:57.907Z,99339.13
2018-10-06T11:14:02.950Z,99336.84
2018-10-06T11:17:07.666Z,99331.32
2018-10-06T11:20:12.297Z,99316.16
2018-10-06T11:23:17.021Z,99317.66
2018-10-06T11:26:21.746Z,99321.81
2018-10-06T11:29:26.578Z,99312.48
2018-10-06T11:32:31.471Z,99299.30
2018-10-06T11:35:36.539Z,99296.82
2018-10-06T11:38:41.121Z,99291.45
2018-10-06T11:41:45.930Z,99279.54
2018-10-06T11:44:50.774Z,99264.13
2018-10-06T11:47:55.486Z,99260.05
2018-10-06T11:51:00.165Z,99255.03
2018-10-06T11:54:04.832Z,99245.34
2018-10-06T11:57:09.659Z,99245.39
2018-10-06T12:00:14.488Z,99240.81
2018-10-06T12:03:19.225Z,99236.20
2018-10-06T12:06:24.044Z,99234.29
2018-10-06T12:09:28.613Z,99222.97
2018-10-06T12:12:33.355Z,99220.34
2018-10-06T12:15:37.908Z,99207.69
2018-10-06T12:18:42.587Z,99211.09
2018-10-06T12:21:47.386Z,99207.52
2018-10-06T12:24:52.077Z,99197.89
2018-10-06T12:27:56.855Z,99190.77
2018-10-06T12:31:01.431Z,99181.09
2018-10-06T12:34:06.122Z,99173.81
2018-10-06T12:37:10.723Z,99169.87
2018-10-06T12:40:15.601Z,99165.25
2018-10-06T12:43:20.568Z,99167.73
2018-10-06T12:46:25.291Z,99159.49
2018-10-06T12:49:30.013Z,99161.27
2018-10-06T12:52:34.794Z,99151.28
2018-10-06T12:55:39.563Z,99143.50
2018-10-06T12:58:44.351Z,99138.30
2018-10-06T13:01:49.129Z,99137.77
2018-10-06T13:04:53.937Z,99134.55
2018-10-06T13:07:58.591Z,99132.87
2018-10-06T13:11:03.529Z,99130.19
2018-10-06T13:14:08.391Z,99128.17
2018-10-06T13:17:13.177Z,99136.69
2018-10-06T13:20:18.330Z,99126.05
2018-10-06T13:23:23.091Z,99127.98
2018-10-06T13:26:27.767Z,99121.83
2018-10-06T13:29:32.858Z,99118.12
2018-10-06T13:32:37.774Z,99109.16
2018-10-06T13:35:42.490Z,99110.58
2018-10-06T13:38:47.374Z,99106.09
2018-10-06T13:41:52.158Z,99099.95
2018-10-06T13:44:57.578Z,99107.33
2018-10-06T13:48:02.611Z,99105.37
2018-10-06T13:51:07.452Z,99099.56
2018-10-06T13:54:12.285Z,99096.91
2018-10-06T13:57:17.379Z,99090.25
2018-10-06T14:00:22.461Z,99093.50
2018-10-06T14:03:27.419Z,99091.86
2018-10-06T14:06:32.279Z,99086.30
2018-10-06T14:09:37.284Z,99084.41
2018-10-06T14:12:41.954Z,99075.67
2018-10-06T14:15:46.865Z,99079.09
2018-10-06T14:18:51.709Z,99083.71
2018-10-06T14:21:56.568Z,99078.09
2018-10-06T14:25:01.131Z,99079.58
2018-10-06T14:28:05.848Z,99074.21
2018-10-06T14:31:10.553Z,99068.05
2018-10-06T14:34:15.219Z,99070.16
2018-10-06T14:37:19.845Z,99063.14
2018-10-06T14:40:24.783Z,99063.80
2018-10-06T14:43:29.362Z,99065.69
2018-10-06T14:46:33.974Z,99057.20
2018-10-06T14:49:38.531Z,99053.31
2018-10-06T14:52:43.256Z,99053.30
2018-10-06T14:55:47.944Z,99044.74
2018-10-06T14:58:52.578Z,99042.30
2018-10-06T15:01:57.340Z,99040.80
2018-10-06T15:05:01.958Z,99034.09
2018-10-06T15:08:06.940Z,99032.55
2018-10-06T15:11:11.533Z,99034.44
2018-10-06T15:14:16.198Z,99032.42
2018-10-06T15:17:20.839Z,99028.94
2018-10-06T15:20:25.597Z,99034.27
2018-10-06T15:23:30.149Z,99029.23
2018-10-06T15:26:34.723Z,99027.58
2018-10-06T15:29:39.469Z,99032.60
2018-10-06T15:32:44.098Z,99032.59
2018-10-06T15:35:48.945Z,99024.33
2018-10-06T15:38:53.727Z,99024.02
2018-10-06T15:41:58.530Z,99017.66
2018-10-06T15:45:03.229Z,99024.22
2018-10-06T15:48:08.101Z,99021.04
2018-10-06T15:51:12.900Z,99017.66
2018-10-06T15:54:17.411Z,99015.33
2018-10-06T15:57:22.017Z,99014.28
2018-10-06T16:00:26.625Z,99018.09
2018-10-06T16:03:31.229Z,99018.11
2018-10-06T16:06:35.859Z,99024.91
2018-10-06T16:09:40.415Z,99017.48
2018-10-06T16:12:44.937Z,99021.80
2018-10-06T16:15:49.528Z,99016.91
2018-10-06T16:18:54.261Z,99022.48
2018-10-06T16:21:58.819Z,99020.81
2018-10-06T16:25:03.476Z,99025.56
2018-10-06T16:28:08.162Z,99035.27
2018-10-06T16:31:12.941Z,99032.41
2018-10-06T16:34:17.578Z,99033.92
2018-10-06T16:37:22.410Z,99036.17
2018-10-06T16:40:27.075Z,99036.51
2018-10-06T16:43:31.765Z,99034.92
2018-10-06T16:46:36.519Z,99037.95
2018-10-06T16:49:41.375Z,99036.89
2018-10-06T16:52:46.158Z,99036.59
2018-10-06T16:55:50.764Z,99036.59
2018-10-06T16:58:55.372Z,99038.71
2018-10-06T17:02:00.373Z,99039.68
2018-10-06T17:05:05.549Z,99039.79
2018-10-06T17:08:10.098Z,99035.19
2018-10-06T17:11:14.761Z,99041.47
2018-10-06T17:14:19.653Z,99044.53
2018-10-06T17:17:24.288Z,99036.41
2018-10-06T17:20:28.908Z,99039.73
2018-10-06T17:23:33.980Z,99041.39
2018-10-06T17:26:38.914Z,99037.84
2018-10-06T17:29:43.837Z,99034.06
2018-10-06T17:32:48.602Z,99037.60
2018-10-06T17:35:53.348Z,99039.80
2018-10-06T17:38:58.433Z,99041.96
2018-10-06T17:42:03.263Z,99038.71
2018-10-06T17:45:08.079Z,99038.70
2018-10-06T17:48:12.853Z,99045.77
2018-10-06T17:51:17.648Z,99042.75
2018-10-06T17:54:22.349Z,99040.58
2018-10-06T17:57:27.090Z,99046.02
2018-10-06T18:00:31.926Z,99049.02
2018-10-06T18:03:36.776Z,99045.75
2018-10-06T18:06:41.440Z,99049.27
2018-10-06T18:09:46.082Z,99053.28
2018-10-06T18:12:50.909Z,99059.55
2018-10-06T18:15:55.625Z,99056.00
2018-10-06T18:19:00.535Z,99050.82
2018-10-06T18:22:05.420Z,99054.87
2018-10-06T18:25:10.097Z,99054.86
2018-10-06T18:28:14.780Z,99051.34
2018-10-06T18:31:19.577Z,99056.20
2018-10-06T18:34:24.282Z,99057.83
2018-10-06T18:37:28.829Z,99063.26
2018-10-06T18:40:33.441Z,99066.23
2018-10-06T18:43:38.297Z,99063.81
2018-10-06T18:46:42.811Z,99064.94
2018-10-06T18:49:47.375Z,99063.27
2018-10-06T18:52:52.025Z,99067.56
2018-10-06T18:55:56.760Z,99065.66
2018-10-06T18:59:01.393Z,99065.87
2018-10-06T19:02:06.429Z,99069.65
2018-10-06T19:05:11.563Z,99068.30
2018-10-06T19:08:16.593Z,99066.08
2018-10-06T19:11:21.512Z,99064.69
2018-10-06T19:14:26.430Z,99069.55
2018-10-06T19:17:31.560Z,99073.61
2018-10-06T19:20:36.688Z,99079.02
2018-10-06T19:23:41.730Z,99077.08
2018-10-06T19:26:46.658Z,99079.22
2018-10-06T19:29:51.592Z,99081.63
2018-10-06T19:32:56.711Z,99080.28
2018-10-06T19:36:01.647Z,99075.36
2018-10-06T19:39:08.559Z,99086.16
2018-10-06T19:42:13.696Z,99091.34
2018-10-06T19:45:18.582Z,99092.13
2018-10-06T19:48:24.406Z,99089.16
2018-10-06T19:51:29.649Z,99091.38
2018-10-06T19:54:34.666Z,99094.84
2018-10-06T19:57:39.830Z,99091.56
2018-10-06T20:00:44.953Z,99095.80
2018-10-06T20:03:49.892Z,99101.17
2018-10-06T20:06:54.911Z,99099.17
2018-10-06T20:09:59.883Z,99102.92
2018-10-06T20:13:04.842Z,99105.34
2018-10-06T20:16:09.749Z,99116.66
2018-10-06T20:19:14.712Z,99112.30
2018-10-06T20:22:19.792Z,99122.89
2018-10-06T20:25:24.459Z,99124.97
2018-10-06T20:28:29.224Z,99131.38
2018-10-06T20:31:33.742Z,99127.80
2018-10-06T20:34:38.337Z,99134.47
2018-10-06T20:37:42.997Z,99133.78
2018-10-06T20:40:47.592Z,99136.91
2018-10-06T20:43:52.440Z,99136.72
2018-10-06T20:46:56.995Z,99136.81
2018-10-06T20:50:01.666Z,99139.67
2018-10-06T20:53:06.637Z,99140.04
2018-10-06T20:56:11.330Z,99137.96
2018-10-06T20:59:15.992Z,99138.95
2018-10-06T21:02:20.723Z,99133.77
2018-10-06T21:05:25.294Z,99136.67
2018-10-06T21:08:29.855Z,99138.53
2018-10-06T21:11:34.539Z,99140.11
2018-10-06T21:14:39.153Z,99138.95
2018-10-06T21:17:43.721Z,99138.17
2018-10-06T21:20:48.326Z,99136.73
2018-10-06T21:23:52.973Z,99138.82
2018-10-06T21:26:57.648Z,99133.78
2018-10-06T21:30:02.374Z,99132.80
2018-10-06T21:33:06.935Z,99141.41
2018-10-06T21:36:11.568Z,99129.00
2018-10-06T21:39:16.245Z,99127.69
2018-10-06T21:42:20.901Z,99125.72
2018-10-06T21:45:25.659Z,99122.65
2018-10-06T21:48:30.535Z,99120.67
2018-10-06T21:51:35.553Z,99130.40
2018-10-06T21:54:40.161Z,99130.85
2018-10-06T21:57:44.888Z,99122.11
2018-10-06T22:00:54.699Z,99127.34
2018-10-06T22:03:59.334Z,99122.92
2018-10-06T22:07:03.979Z,99115.58
2018-10-06T22:10:08.671Z,99116.80
2018-10-06T22:13:13.284Z,99122.44
2018-10-06T22:16:18.009Z,99124.59
2018-10-06T22:19:22.629Z,99115.89
2018-10-06T22:22:27.171Z,99114.98
2018-10-06T22:25:31.993Z,99114.31
2018-10-06T22:28:36.590Z,99117.59
2018-10-06T22:31:41.265Z,99116.92
2018-10-06T22:34:45.788Z,99112.72
2018-10-06T22:37:50.364Z,99116.98
2018-10-06T22:40:55.153Z,99120.73
2018-10-06T22:43:59.731Z,99119.45
2018-10-06T22:47:04.265Z,99113.15
2018-10-06T22:50:08.861Z,99118.50
2018-10-06T22:53:13.658Z,99115.98
2018-10-06T22:56:18.261Z,99121.86
2018-10-06T22:59:22.875Z,99120.39
2018-10-06T23:02:27.780Z,99115.92
2018-10-06T23:05:32.384Z,99113.61
2018-10-06T23:08:36.946Z,99118.34
2018-10-06T23:11:41.665Z,99113.20
2018-10-06T23:14:46.205Z,99107.84
2018-10-06T23:17:50.796Z,99111.24
2018-10-06T23:20:55.448Z,99109.58
2018-10-06T23:24:00.530Z,99115.41
2018-10-06T23:27:05.656Z,99120.06
2018-10-06T23:30:10.257Z,99126.87
2018-10-06T23:33:14.931Z,99121.02
2018-10-06T23:36:19.981Z,99126.17
2018-10-06T23:39:24.539Z,99127.39
2018-10-06T23:42:29.350Z,99127.58
2018-10-06T23:45:33.895Z,99127.73
2018-10-06T23:48:38.490Z,99128.34
2018-10-06T23:51:43.088Z,99126.27
2018-10-06T23:54:47.715Z,99127.15
2018-10-06T23:57:52.272Z,99127.34
